createdAt,value
2018-02-20T00:02:01.954Z,4.95
2018-02-20T00:04:32.648Z,4.85
2018-02-20T00:07:01.094Z,4.73
2018-02-20T00:09:29.542Z,4.89
2018-02-20T00:11:58.911Z,4.90
2018-02-20T00:14:27.500Z,4.75
2018-02-20T00:16:56.064Z,4.74
2018-02-20T00:19:24.592Z,4.51
2018-02-20T00:21:53.108Z,4.47
2018-02-20T00:24:21.631Z,4.55
2018-02-20T00:26:50.631Z,4.57
2018-02-20T00:29:19.064Z,4.53
2018-02-20T00:31:47.537Z,4.60
2018-02-20T00:34:16.099Z,4.51
2018-02-20T00:36:44.535Z,4.55
2018-02-20T00:39:13.230Z,4.44
2018-02-20T00:41:41.868Z,4.48
2018-02-20T00:44:10.618Z,4.53
2018-02-20T00:46:39.213Z,4.53
2018-02-20T00:49:08.054Z,4.46
2018-02-20T00:51:36.512Z,4.44
2018-02-20T00:54:05.040Z,4.40
2018-02-20T00:56:33.935Z,4.33
2018-02-20T00:59:02.490Z,4.44
2018-02-20T01:01:30.950Z,4.46
2018-02-20T01:03:59.506Z,4.55
2018-02-20T01:06:27.986Z,4.46
2018-02-20T01:08:56.442Z,4.37
2018-02-20T01:11:25.072Z,4.39
2018-02-20T01:13:53.541Z,4.37
2018-02-20T01:16:25.327Z,4.35
2018-02-20T01:18:53.833Z,4.37
2018-02-20T01:21:22.394Z,4.48
2018-02-20T01:23:52.862Z,4.40
2018-02-20T01:26:21.554Z,4.49
2018-02-20T01:28:50.030Z,4.38
2018-02-20T01:31:19.237Z,4.37
2018-02-20T01:33:47.845Z,4.57
2018-02-20T01:36:16.686Z,4.75
2018-02-20T01:38:45.131Z,4.78
2018-02-20T01:41:13.636Z,4.86
2018-02-20T01:43:42.117Z,4.72
2018-02-20T01:46:10.575Z,4.51
2018-02-20T01:48:39.259Z,4.36
2018-02-20T01:51:08.642Z,4.16
2018-02-20T01:53:37.245Z,4.02
2018-02-20T01:56:05.839Z,4.01
2018-02-20T01:58:35.438Z,4.05
2018-02-20T02:01:04.122Z,3.97
2018-02-20T02:03:32.810Z,3.93
2018-02-20T02:06:01.276Z,3.86
2018-02-20T02:08:29.790Z,3.85
2018-02-20T02:10:58.455Z,3.80
2018-02-20T02:13:26.928Z,3.65
2018-02-20T02:15:55.713Z,3.83
2018-02-20T02:18:24.575Z,3.90
2018-02-20T02:20:53.078Z,3.90
2018-02-20T02:23:21.502Z,3.91
2018-02-20T02:25:50.658Z,3.92
2018-02-20T02:28:19.175Z,3.95
2018-02-20T02:30:47.823Z,3.93
2018-02-20T02:33:16.573Z,3.71
2018-02-20T02:35:45.019Z,3.75
2018-02-20T02:38:13.435Z,3.65
2018-02-20T02:40:41.998Z,3.59
2018-02-20T02:43:10.431Z,3.44
2018-02-20T02:45:38.860Z,3.40
2018-02-20T02:48:07.750Z,3.35
2018-02-20T02:50:36.210Z,3.37
2018-02-20T02:53:04.792Z,3.39
2018-02-20T02:55:33.472Z,3.64
2018-02-20T02:58:02.063Z,3.63
2018-02-20T03:00:32.542Z,3.57
2018-02-20T03:03:01.034Z,3.65
2018-02-20T03:05:29.621Z,3.65
2018-02-20T03:07:58.078Z,3.60
2018-02-20T03:10:26.689Z,3.62
2018-02-20T03:12:55.129Z,3.66
2018-02-20T03:15:23.672Z,3.80
2018-02-20T03:17:52.430Z,3.75
2018-02-20T03:20:20.871Z,3.82
2018-02-20T03:22:49.295Z,3.78
2018-02-20T03:25:17.774Z,3.73
2018-02-20T03:27:46.224Z,3.81
2018-02-20T03:30:14.659Z,3.86
2018-02-20T03:32:43.114Z,3.78
2018-02-20T03:35:11.603Z,3.63
2018-02-20T03:37:40.072Z,3.69
2018-02-20T03:40:09.478Z,3.72
2018-02-20T03:42:38.028Z,3.72
2018-02-20T03:45:06.578Z,3.67
2018-02-20T03:47:35.135Z,3.66
2018-02-20T03:50:03.722Z,3.67
2018-02-20T03:52:32.601Z,3.63
2018-02-20T03:55:01.229Z,3.57
2018-02-20T03:57:29.748Z,3.72
2018-02-20T03:59:58.434Z,3.64
2018-02-20T04:02:28.118Z,3.60
2018-02-20T04:04:56.675Z,3.71
2018-02-20T04:07:25.154Z,3.63
2018-02-20T04:09:53.618Z,3.63
2018-02-20T04:12:22.065Z,3.61
2018-02-20T04:14:50.489Z,3.69
2018-02-20T04:17:18.975Z,3.50
2018-02-20T04:19:47.616Z,3.38
2018-02-20T04:22:16.110Z,3.44
2018-02-20T04:24:44.944Z,3.40
2018-02-20T04:27:13.367Z,3.30
2018-02-20T04:29:42.573Z,3.34
2018-02-20T04:32:11.033Z,3.49
2018-02-20T04:34:39.478Z,3.47
2018-02-20T04:37:07.995Z,3.48
2018-02-20T04:39:36.509Z,3.51
2018-02-20T04:42:04.989Z,3.53
2018-02-20T04:44:33.460Z,3.50
2018-02-20T04:47:02.352Z,3.60
2018-02-20T04:49:30.805Z,3.47
2018-02-20T04:51:59.307Z,3.63
2018-02-20T04:54:27.969Z,3.60
2018-02-20T04:56:56.425Z,3.55
2018-02-20T04:59:25.032Z,3.59
2018-02-20T05:01:54.099Z,3.43
2018-02-20T05:04:22.633Z,3.45
2018-02-20T05:06:51.097Z,3.40
2018-02-20T05:09:19.572Z,3.40
2018-02-20T05:11:48.048Z,3.36
2018-02-20T05:14:17.053Z,3.40
2018-02-20T05:16:45.735Z,3.36
2018-02-20T05:19:14.183Z,3.40
2018-02-20T05:21:42.641Z,3.32
2018-02-20T05:24:11.485Z,3.23
2018-02-20T05:26:39.953Z,3.26
2018-02-20T05:29:08.675Z,3.21
2018-02-20T05:31:37.329Z,3.25
2018-02-20T05:34:05.918Z,3.41
2018-02-20T05:36:34.500Z,3.41
2018-02-20T05:39:03.371Z,3.37
2018-02-20T05:41:32.308Z,3.50
2018-02-20T05:44:00.747Z,3.38
2018-02-20T05:46:29.510Z,3.43
2018-02-20T05:48:58.017Z,3.32
2018-02-20T05:51:26.502Z,3.37
2018-02-20T05:53:55.270Z,3.31
2018-02-20T05:56:23.733Z,3.44
2018-02-20T05:58:52.171Z,3.37
2018-02-20T06:01:20.628Z,3.36
2018-02-20T06:03:49.050Z,3.36
2018-02-20T06:06:17.609Z,3.40
2018-02-20T06:08:46.074Z,3.28
2018-02-20T06:11:14.517Z,3.24
2018-02-20T06:13:43.032Z,3.30
2018-02-20T06:16:11.582Z,3.19
2018-02-20T06:18:40.093Z,3.24
2018-02-20T06:21:08.605Z,3.25
2018-02-20T06:23:37.419Z,3.29
2018-02-20T06:26:05.921Z,3.15
2018-02-20T06:28:34.546Z,3.26
2018-02-20T06:31:04.025Z,3.28
2018-02-20T06:33:32.541Z,3.19
2018-02-20T06:36:00.988Z,3.32
2018-02-20T06:38:29.497Z,3.35
2018-02-20T06:40:57.943Z,3.23
2018-02-20T06:43:26.430Z,3.24
2018-02-20T06:45:54.935Z,3.11
2018-02-20T06:48:23.366Z,3.08
2018-02-20T06:50:51.872Z,3.22
2018-02-20T06:53:20.343Z,3.25
2018-02-20T06:55:48.837Z,3.16
2018-02-20T06:58:17.351Z,3.29
2018-02-20T07:00:45.953Z,3.31
2018-02-20T07:03:14.365Z,3.42
2018-02-20T07:05:42.841Z,3.41
2018-02-20T07:08:11.659Z,3.40
2018-02-20T07:10:40.252Z,3.20
2018-02-20T07:13:08.923Z,3.28
2018-02-20T07:15:37.518Z,3.29
2018-02-20T07:18:06.047Z,3.22
2018-02-20T07:20:34.556Z,3.16
2018-02-20T07:23:04.316Z,3.31
2018-02-20T07:25:32.881Z,3.46
2018-02-20T07:28:01.453Z,3.38
2018-02-20T07:30:30.184Z,3.48
2018-02-20T07:32:58.928Z,3.36
2018-02-20T07:35:27.347Z,3.40
2018-02-20T07:37:55.812Z,3.47
2018-02-20T07:40:24.344Z,3.52
2018-02-20T07:42:52.817Z,3.57
2018-02-20T07:45:21.350Z,3.55
2018-02-20T07:47:49.856Z,3.63
2018-02-20T07:50:18.359Z,3.76
2018-02-20T07:52:47.037Z,3.62
2018-02-20T07:55:15.707Z,3.80
2018-02-20T07:57:44.170Z,3.78
2018-02-20T08:00:13.096Z,3.71
2018-02-20T08:02:42.500Z,3.89
2018-02-20T08:05:11.293Z,3.94
2018-02-20T08:07:40.075Z,4.03
2018-02-20T08:10:08.557Z,4.08
2018-02-20T08:12:37.447Z,4.12
2018-02-20T08:15:06.308Z,4.12
2018-02-20T08:17:34.817Z,4.08
2018-02-20T08:20:03.401Z,3.93
2018-02-20T08:22:32.089Z,3.98
2018-02-20T08:25:04.174Z,3.75
2018-02-20T08:27:32.738Z,3.84
2018-02-20T08:30:01.733Z,3.74
2018-02-20T08:32:31.030Z,3.87
2018-02-20T08:34:59.890Z,3.84
2018-02-20T08:37:28.393Z,3.70
2018-02-20T08:39:56.945Z,3.66
2018-02-20T08:42:25.433Z,3.51
2018-02-20T08:44:54.041Z,3.97
2018-02-20T08:47:22.526Z,4.43
2018-02-20T08:49:51.060Z,4.83
2018-02-20T08:52:19.557Z,4.87
2018-02-20T08:54:48.546Z,5.12
2018-02-20T08:57:18.034Z,5.15
2018-02-20T08:59:46.790Z,5.07
2018-02-20T09:02:15.216Z,5.46
2018-02-20T09:04:43.853Z,5.66
2018-02-20T09:07:12.723Z,5.64
2018-02-20T09:09:41.170Z,6.26
2018-02-20T09:12:10.088Z,6.68
2018-02-20T09:14:38.601Z,6.79
2018-02-20T09:17:07.387Z,6.94
2018-02-20T09:19:39.453Z,6.81
2018-02-20T09:22:08.038Z,6.99
2018-02-20T09:24:36.591Z,7.27
2018-02-20T09:27:05.246Z,7.74
2018-02-20T09:29:33.779Z,7.83
2018-02-20T09:32:02.688Z,7.59
2018-02-20T09:34:31.255Z,8.00
2018-02-20T09:36:59.847Z,7.79
2018-02-20T09:39:28.288Z,7.67
2018-02-20T09:41:57.120Z,8.18
2018-02-20T09:44:25.575Z,8.35
2018-02-20T09:46:54.031Z,8.85
2018-02-20T09:49:22.484Z,8.81
2018-02-20T09:51:50.917Z,8.89
2018-02-20T09:54:19.378Z,8.57
2018-02-20T09:56:48.026Z,9.26
2018-02-20T09:59:16.515Z,9.51
2018-02-20T10:01:45.161Z,9.09
2018-02-20T10:04:14.409Z,9.22
2018-02-20T10:06:42.938Z,8.39
2018-02-20T10:09:11.823Z,8.24
2018-02-20T10:11:40.462Z,8.69
2018-02-20T10:14:08.948Z,8.55
2018-02-20T10:16:37.625Z,8.75
2018-02-20T10:19:06.260Z,8.35
2018-02-20T10:21:34.797Z,8.46
2018-02-20T10:24:03.636Z,8.77
2018-02-20T10:26:33.091Z,8.20
2018-02-20T10:29:02.401Z,8.22
2018-02-20T10:31:31.096Z,8.13
2018-02-20T10:33:59.675Z,8.64
2018-02-20T10:36:28.340Z,8.53
2018-02-20T10:41:30.859Z,9.18
2018-02-20T10:43:59.349Z,8.96
2018-02-20T10:46:27.901Z,9.55
2018-02-20T10:48:56.553Z,10.07
2018-02-20T10:51:25.037Z,10.25
2018-02-20T10:53:53.589Z,10.62
2018-02-20T10:56:22.461Z,9.05
2018-02-20T10:58:50.986Z,9.18
2018-02-20T11:01:19.474Z,9.52
2018-02-20T11:03:49.025Z,9.94
2018-02-20T11:06:17.586Z,9.40
2018-02-20T11:08:46.090Z,9.66
2018-02-20T11:11:14.884Z,9.00
2018-02-20T11:13:43.493Z,8.43
2018-02-20T11:16:12.377Z,8.77
2018-02-20T11:18:41.189Z,9.72
2018-02-20T11:21:09.847Z,9.42
2018-02-20T11:23:38.573Z,9.64
2018-02-20T11:26:07.251Z,9.52
2018-02-20T11:28:35.778Z,9.41
2018-02-20T11:31:04.369Z,9.09
2018-02-20T11:33:33.154Z,9.11
2018-02-20T11:36:01.736Z,8.29
2018-02-20T11:38:30.281Z,8.40
2018-02-20T11:40:59.173Z,8.05
2018-02-20T11:43:27.756Z,7.92
2018-02-20T11:45:56.240Z,8.12
2018-02-20T11:48:24.858Z,7.58
2018-02-20T11:50:53.361Z,7.51
2018-02-20T11:53:21.818Z,6.95
2018-02-20T11:55:51.274Z,6.39
2018-02-20T11:58:19.820Z,6.08
2018-02-20T12:00:48.389Z,5.90
2018-02-20T12:03:16.974Z,5.69
2018-02-20T12:05:45.522Z,5.64
2018-02-20T12:08:14.036Z,5.98
2018-02-20T12:10:43.032Z,5.62
2018-02-20T12:13:12.226Z,5.64
2018-02-20T12:15:40.890Z,5.50
2018-02-20T12:18:09.905Z,5.41
2018-02-20T12:20:38.489Z,5.71
2018-02-20T12:23:07.196Z,5.91
2018-02-20T12:25:36.389Z,5.80
2018-02-20T12:28:04.978Z,6.02
2018-02-20T12:30:35.388Z,5.84
2018-02-20T12:33:04.001Z,5.76
2018-02-20T12:35:32.548Z,5.81
2018-02-20T12:38:05.327Z,5.61
2018-02-20T12:40:34.141Z,5.49
2018-02-20T12:43:02.702Z,5.43
2018-02-20T12:45:32.200Z,5.48
2018-02-20T12:48:00.943Z,5.58
2018-02-20T12:50:29.393Z,5.75
2018-02-20T12:52:58.055Z,5.98
2018-02-20T12:55:26.544Z,6.02
2018-02-20T12:57:54.975Z,6.18
2018-02-20T13:00:24.927Z,6.07
2018-02-20T13:02:54.125Z,5.90
2018-02-20T13:05:22.586Z,6.19
2018-02-20T13:07:51.783Z,6.21
2018-02-20T13:10:20.285Z,5.84
2018-02-20T13:12:48.862Z,6.02
2018-02-20T13:15:17.942Z,6.11
2018-02-20T13:17:46.465Z,6.06
2018-02-20T13:20:14.965Z,5.71
2018-02-20T13:22:44.303Z,5.44
2018-02-20T13:25:12.995Z,5.70
2018-02-20T13:27:41.722Z,5.42
2018-02-20T13:30:10.221Z,5.26
2018-02-20T13:32:39.083Z,5.61
2018-02-20T13:35:07.606Z,5.51
2018-02-20T13:37:36.209Z,5.40
2018-02-20T13:40:04.765Z,5.20
2018-02-20T13:42:34.171Z,5.18
2018-02-20T13:45:03.324Z,5.21
2018-02-20T13:47:31.909Z,5.40
2018-02-20T13:50:00.597Z,5.28
2018-02-20T13:52:30.501Z,5.19
2018-02-20T13:54:59.065Z,5.15
2018-02-20T13:57:27.509Z,5.17
2018-02-20T13:59:56.660Z,5.02
2018-02-20T14:02:25.180Z,5.15
2018-02-20T14:04:53.725Z,5.21
2018-02-20T14:07:22.365Z,4.97
2018-02-20T14:09:52.697Z,4.93
2018-02-20T14:12:21.404Z,4.96
2018-02-20T14:14:50.498Z,4.85
2018-02-20T14:17:19.515Z,4.77
2018-02-20T14:19:48.175Z,4.86
2018-02-20T14:22:17.005Z,4.88
2018-02-20T14:24:45.494Z,4.84
2018-02-20T14:27:13.953Z,4.59
2018-02-20T14:29:42.702Z,4.53
2018-02-20T14:32:11.223Z,4.63
2018-02-20T14:34:39.725Z,4.55
2018-02-20T14:37:08.454Z,4.57
2018-02-20T14:39:37.241Z,4.58
2018-02-20T14:42:05.842Z,4.42
2018-02-20T14:44:34.771Z,4.55
2018-02-20T14:47:03.326Z,4.41
2018-02-20T14:49:31.887Z,4.40
2018-02-20T14:52:00.834Z,4.57
2018-02-20T14:54:30.421Z,4.58
2018-02-20T14:56:58.940Z,4.44
2018-02-20T14:59:28.598Z,4.47
2018-02-20T15:01:58.162Z,4.49
2018-02-20T15:04:26.691Z,4.36
2018-02-20T15:06:55.316Z,4.32
2018-02-20T15:09:23.799Z,4.29
2018-02-20T15:11:52.429Z,4.33
2018-02-20T15:14:21.712Z,4.33
2018-02-20T15:16:50.169Z,4.17
2018-02-20T15:19:18.772Z,4.11
2018-02-20T15:21:48.196Z,4.09
2018-02-20T15:24:16.693Z,4.11
2018-02-20T15:26:45.719Z,4.10
2018-02-20T15:29:14.556Z,4.01
2018-02-20T15:31:43.161Z,4.03
2018-02-20T15:34:12.027Z,4.19
2018-02-20T15:36:40.763Z,4.22
2018-02-20T15:39:09.733Z,4.12
2018-02-20T15:41:38.535Z,4.09
2018-02-20T15:44:07.927Z,4.08
2018-02-20T15:46:37.637Z,3.97
2018-02-20T15:49:06.230Z,3.90
2018-02-20T15:51:35.976Z,3.96
2018-02-20T15:54:04.637Z,3.91
2018-02-20T15:56:33.628Z,3.90
2018-02-20T15:59:02.971Z,3.94
2018-02-20T16:01:31.639Z,3.90
2018-02-20T16:04:00.282Z,3.88
2018-02-20T16:06:29.359Z,3.86
2018-02-20T16:08:58.034Z,3.72
2018-02-20T16:11:26.606Z,3.63
2018-02-20T16:14:03.988Z,3.66
2018-02-20T16:16:33.065Z,3.50
2018-02-20T16:19:01.642Z,3.46
2018-02-20T16:21:30.163Z,3.46
2018-02-20T16:23:58.676Z,3.37
2018-02-20T16:26:27.205Z,3.35
2018-02-20T16:28:55.772Z,3.30
2018-02-20T16:31:24.256Z,3.35
2018-02-20T16:33:52.824Z,3.33
2018-02-20T16:36:22.134Z,3.30
2018-02-20T16:38:51.013Z,3.28
2018-02-20T16:41:19.920Z,3.16
2018-02-20T16:43:49.504Z,3.15
2018-02-20T16:46:17.993Z,3.12
2018-02-20T16:48:46.736Z,3.22
2018-02-20T16:51:15.261Z,3.28
2018-02-20T16:53:43.745Z,3.32
2018-02-20T16:56:12.453Z,3.25
2018-02-20T16:58:41.132Z,3.28
2018-02-20T17:01:09.760Z,3.21
2018-02-20T17:03:38.340Z,3.29
2018-02-20T17:06:07.533Z,3.34
2018-02-20T17:08:36.135Z,3.14
2018-02-20T17:11:04.875Z,3.15
2018-02-20T17:13:34.040Z,3.08
2018-02-20T17:16:02.951Z,3.07
2018-02-20T17:18:31.780Z,3.14
2018-02-20T17:21:01.045Z,3.04
2018-02-20T17:23:29.580Z,3.06
2018-02-20T17:25:58.827Z,3.03
2018-02-20T17:28:30.478Z,3.14
2018-02-20T17:30:58.965Z,3.04
2018-02-20T17:33:27.800Z,3.07
2018-02-20T17:35:56.582Z,3.01
2018-02-20T17:38:25.123Z,2.89
2018-02-20T17:40:53.698Z,2.88
2018-02-20T17:43:22.945Z,2.91
2018-02-20T17:45:51.614Z,2.73
2018-02-20T17:48:20.193Z,2.72
2018-02-20T17:50:48.829Z,2.83
2018-02-20T17:53:19.720Z,2.89
2018-02-20T17:55:49.846Z,2.88
2018-02-20T17:58:18.350Z,2.81
2018-02-20T18:00:47.635Z,2.79
2018-02-20T18:03:16.286Z,2.85
2018-02-20T18:05:45.098Z,2.74
2018-02-20T18:08:13.987Z,2.75
2018-02-20T18:10:45.015Z,2.79
2018-02-20T18:13:13.946Z,2.71
2018-02-20T18:15:42.493Z,2.75
2018-02-20T18:18:11.797Z,2.75
2018-02-20T18:20:40.813Z,2.78
2018-02-20T18:23:09.994Z,2.79
2018-02-20T18:25:38.961Z,2.74
2018-02-20T18:28:11.764Z,2.65
2018-02-20T18:30:41.830Z,2.67
2018-02-20T18:33:21.401Z,2.75
2018-02-20T18:35:50.297Z,2.68
2018-02-20T18:38:19.057Z,2.61
2018-02-20T18:40:47.630Z,2.60
2018-02-20T18:43:16.159Z,2.63
2018-02-20T18:45:45.356Z,2.73
2018-02-20T18:48:29.306Z,2.68
2018-02-20T18:50:58.441Z,2.76
2018-02-20T18:53:26.996Z,2.77
2018-02-20T18:55:56.262Z,2.71
2018-02-20T19:01:19.287Z,2.69
2018-02-20T19:03:49.606Z,2.60
2018-02-20T19:06:18.440Z,2.57
2018-02-20T19:08:48.775Z,2.63
2018-02-20T19:11:18.890Z,2.56
2018-02-20T19:13:49.911Z,2.50
2018-02-20T19:16:18.442Z,2.59
2018-02-20T19:18:47.456Z,2.52
2018-02-20T19:21:16.256Z,2.61
2018-02-20T19:23:45.113Z,2.64
2018-02-20T19:26:14.028Z,2.60
2018-02-20T19:28:45.983Z,2.51
2018-02-20T19:31:14.581Z,2.54
2018-02-20T19:33:43.668Z,2.48
2018-02-20T19:36:12.820Z,2.38
2018-02-20T19:38:41.656Z,2.49
2018-02-20T19:41:11.498Z,2.49
2018-02-20T19:43:41.259Z,2.45
2018-02-20T19:46:11.064Z,2.50
2018-02-20T19:48:39.868Z,2.42
2018-02-20T19:51:09.442Z,2.39
2018-02-20T19:53:38.341Z,2.46
2018-02-20T19:56:11.027Z,2.44
2018-02-20T19:58:40.251Z,2.40
2018-02-20T20:01:08.896Z,2.33
2018-02-20T20:03:38.375Z,2.36
2018-02-20T20:06:06.996Z,2.37
2018-02-20T20:08:35.597Z,2.46
2018-02-20T20:11:04.223Z,2.35
2018-02-20T20:13:33.023Z,2.30
2018-02-20T20:16:01.514Z,2.37
2018-02-20T20:18:30.286Z,2.36
2018-02-20T20:20:58.779Z,2.25
2018-02-20T20:23:27.339Z,2.26
2018-02-20T20:25:57.041Z,2.16
2018-02-20T20:28:26.648Z,2.15
2018-02-20T20:30:55.136Z,2.10
2018-02-20T20:33:24.210Z,2.08
2018-02-20T20:35:52.844Z,2.14
2018-02-20T20:38:21.420Z,2.09
2018-02-20T20:40:50.005Z,2.09
2018-02-20T20:43:18.587Z,2.01
2018-02-20T20:45:47.288Z,1.99
2018-02-20T20:48:16.597Z,2.09
2018-02-20T20:50:45.051Z,2.01
2018-02-20T20:53:13.650Z,2.03
2018-02-20T20:55:42.353Z,2.01
2018-02-20T20:58:11.174Z,1.93
2018-02-20T21:00:39.789Z,1.82
2018-02-20T21:03:09.909Z,1.85
2018-02-20T21:05:39.025Z,1.94
2018-02-20T21:08:09.248Z,1.93
2018-02-20T21:10:37.946Z,1.85
2018-02-20T21:13:06.762Z,1.80
2018-02-20T21:15:35.877Z,1.85
2018-02-20T21:18:04.798Z,1.79
2018-02-20T21:20:34.532Z,1.86
2018-02-20T21:23:03.770Z,1.90
2018-02-20T21:25:34.289Z,1.82
2018-02-20T21:28:02.963Z,1.83
2018-02-20T21:30:31.636Z,1.93
2018-02-20T21:33:00.790Z,1.90
2018-02-20T21:35:29.430Z,1.78
2018-02-20T21:37:57.956Z,1.74
2018-02-20T21:40:26.901Z,1.78
2018-02-20T21:42:55.470Z,1.72
2018-02-20T21:45:24.124Z,1.79
2018-02-20T21:47:52.720Z,1.85
2018-02-20T21:50:23.481Z,1.76
2018-02-20T21:52:52.359Z,1.76
2018-02-20T21:55:21.796Z,1.80
2018-02-20T21:57:50.830Z,1.68
2018-02-20T22:00:19.407Z,1.60
2018-02-20T22:02:48.721Z,1.62
2018-02-20T22:05:17.712Z,1.71
2018-02-20T22:07:46.543Z,1.64
2018-02-20T22:10:15.281Z,1.65
2018-02-20T22:12:43.948Z,1.64
2018-02-20T22:15:12.843Z,1.70
2018-02-20T22:17:42.360Z,1.64
2018-02-20T22:20:10.948Z,1.68
2018-02-20T22:22:39.864Z,1.65
2018-02-20T22:25:09.139Z,1.67
2018-02-20T22:27:37.728Z,1.67
2018-02-20T22:30:06.308Z,1.70
2018-02-20T22:32:35.899Z,1.74
2018-02-20T22:35:04.726Z,1.67
2018-02-20T22:37:33.290Z,1.62
2018-02-20T22:40:01.840Z,1.62
2018-02-20T22:42:30.335Z,1.63
2018-02-20T22:44:58.808Z,1.61
2018-02-20T22:47:27.714Z,1.59
2018-02-20T22:49:56.165Z,1.72
2018-02-20T22:52:24.773Z,1.72
2018-02-20T22:54:54.464Z,1.78
2018-02-20T22:57:22.951Z,1.79
2018-02-20T22:59:51.438Z,1.67
2018-02-20T23:02:20.031Z,1.77
2018-02-20T23:04:48.550Z,1.74
2018-02-20T23:07:17.055Z,1.61
2018-02-20T23:09:45.766Z,1.71
2018-02-20T23:12:14.331Z,1.74
2018-02-20T23:14:42.868Z,1.77
2018-02-20T23:17:11.520Z,1.62
2018-02-20T23:19:40.010Z,1.69
2018-02-20T23:22:08.503Z,1.60
2018-02-20T23:24:37.119Z,1.74
2018-02-20T23:27:05.670Z,1.58
2018-02-20T23:29:34.709Z,1.65
2018-02-20T23:32:03.333Z,1.60
2018-02-20T23:34:32.827Z,1.64
2018-02-20T23:37:02.078Z,1.65
2018-02-20T23:39:30.708Z,1.50
2018-02-20T23:41:59.841Z,1.64
2018-02-20T23:44:28.302Z,1.63
2018-02-20T23:46:57.795Z,1.66
2018-02-20T23:49:26.237Z,1.76
2018-02-20T23:51:54.687Z,1.71
2018-02-20T23:54:23.648Z,1.51
2018-02-20T23:56:52.163Z,1.65
2018-02-20T23:59:20.607Z,1.59
